Time;durP1;ratioP1;P1;durP2;ratioP2;P2;SDS_P1;SDS_P2;PMS_P1;PMS_P2;Temp;Humidity;BMP_temperature;BMP_pressure;BME280_temperature;BME280_humidity;BME280_pressure;Samples;Min_cycle;Max_cycle;Signal;HPM_P1;HPM_P2
2023/11/05 00:00:27;;;;;;;1.25;0.60;;;;;;;6.72;100.00;93923.81;5062594;28;20579;-62
2023/11/05 00:02:53;;;;;;;1.35;0.60;;;;;;;6.76;100.00;93902.44;5043559;28;20043;-62
2023/11/05 00:05:21;;;;;;;0.65;0.40;;;;;;;6.73;100.00;93893.13;5061587;28;20500;-63
2023/11/05 00:07:47;;;;;;;1.67;0.90;;;;;;;6.78;100.00;93904.84;5062436;28;20086;-62
2023/11/05 00:10:14;;;;;;;1.45;0.73;;;;;;;6.83;100.00;93899.31;5057703;28;20049;-62
2023/11/05 00:12:40;;;;;;;0.90;0.50;;;;;;;6.88;100.00;93883.81;5062070;28;20054;-62
2023/11/05 00:15:08;;;;;;;0.47;0.40;;;;;;;6.88;100.00;93877.63;5062851;28;20527;-63
2023/11/05 00:17:34;;;;;;;0.95;0.60;;;;;;;6.85;100.00;93891.69;5061851;28;20040;-62
2023/11/05 00:20:07;;;;;;;2.35;0.60;;;;;;;6.81;100.00;93877.31;5062886;28;20571;-63
2023/11/05 00:22:34;;;;;;;0.93;0.50;;;;;;;6.79;100.00;93877.63;5065711;28;20041;-63
2023/11/05 00:25:01;;;;;;;1.23;0.50;;;;;;;6.75;100.00;93874.75;5065678;28;20127;-63
2023/11/05 00:27:27;;;;;;;0.65;0.50;;;;;;;6.79;100.00;93871.44;5065800;28;20048;-63
2023/11/05 00:29:54;;;;;;;2.13;0.45;;;;;;;6.86;100.00;93861.03;5065415;28;20040;-63
2023/11/05 00:32:21;;;;;;;1.08;0.93;;;;;;;6.90;100.00;93862.75;5065457;28;20658;-63
2023/11/05 00:34:47;;;;;;;1.13;0.50;;;;;;;6.93;100.00;93861.34;5046082;28;20131;-63
2023/11/05 00:37:14;;;;;;;1.88;0.63;;;;;;;6.91;100.00;93850.13;5045641;28;20044;-63
2023/11/05 00:39:42;;;;;;;3.20;0.70;;;;;;;6.92;100.00;93842.84;5065217;28;20033;-63
2023/11/05 00:42:09;;;;;;;0.57;0.38;;;;;;;6.95;100.00;93845.69;5066018;28;20052;-62
2023/11/05 00:44:36;;;;;;;2.03;0.57;;;;;;;6.95;100.00;93839.50;5065006;28;20115;-63
2023/11/05 00:47:02;;;;;;;1.15;0.38;;;;;;;6.99;100.00;93827.81;5065842;28;20123;-63
2023/11/05 00:49:29;;;;;;;0.85;0.38;;;;;;;6.96;100.00;93833.03;5066191;28;20037;-63
2023/11/05 00:51:55;;;;;;;0.82;0.40;;;;;;;6.98;100.00;93831.63;5064240;28;20047;-63
2023/11/05 00:54:22;;;;;;;0.77;0.38;;;;;;;6.97;100.00;93831.94;5063566;28;20040;-64
2023/11/05 00:56:48;;;;;;;1.83;0.63;;;;;;;6.86;100.00;93821.47;5058228;28;20109;-63
2023/11/05 00:59:15;;;;;;;1.20;0.35;;;;;;;6.86;100.00;93818.78;5064827;28;20044;-63
2023/11/05 01:01:41;;;;;;;1.52;0.40;;;;;;;6.81;100.00;93816.25;5066324;28;20036;-63
2023/11/05 01:04:08;;;;;;;0.50;0.30;;;;;;;6.85;100.00;93816.41;5063643;28;20047;-63
2023/11/05 01:06:35;;;;;;;0.75;0.38;;;;;;;6.82;100.00;93801.69;5064473;28;20082;-63
2023/11/05 01:09:01;;;;;;;0.73;0.30;;;;;;;6.79;100.00;93805.03;5061998;28;20041;-62
2023/11/05 01:11:28;;;;;;;1.20;0.50;;;;;;;6.83;100.00;93792.53;5063035;28;20642;-63
2023/11/05 01:13:54;;;;;;;2.47;0.40;;;;;;;6.86;100.00;93799.97;5064654;28;20086;-63
2023/11/05 01:16:21;;;;;;;0.75;0.30;;;;;;;6.87;100.00;93795.38;5064705;28;20656;-63
2023/11/05 01:18:48;;;;;;;0.52;0.52;;;;;;;6.92;100.00;93794.44;5063797;28;20060;-63
2023/11/05 01:21:15;;;;;;;0.17;0.17;;;;;;;6.94;100.00;93789.53;5063614;28;20033;-63
2023/11/05 01:23:41;;;;;;;1.30;0.20;;;;;;;6.91;100.00;93793.63;5062916;28;20063;-62
2023/11/05 01:26:08;;;;;;;1.15;0.38;;;;;;;7.03;100.00;93798.38;5047158;28;20048;-63
2023/11/05 01:28:34;;;;;;;4.18;0.70;;;;;;;7.09;100.00;93791.75;5064363;28;20052;-63
2023/11/05 01:31:01;;;;;;;0.63;0.43;;;;;;;7.11;100.00;93792.19;5064790;28;20659;-63
2023/11/05 01:33:27;;;;;;;0.50;0.22;;;;;;;7.10;100.00;93771.78;5058897;28;20070;-63
2023/11/05 01:35:54;;;;;;;1.38;0.57;;;;;;;7.12;100.00;93768.78;5046294;28;20496;-63
2023/11/05 01:38:20;;;;;;;1.70;0.20;;;;;;;7.09;100.00;93767.53;5064817;28;20045;-64
2023/11/05 01:40:47;;;;;;;1.10;0.40;;;;;;;7.18;100.00;93761.34;5062921;28;20607;-63
2023/11/05 01:43:14;;;;;;;1.05;0.28;;;;;;;7.21;100.00;93753.41;5065210;28;20037;-63
2023/11/05 01:45:40;;;;;;;0.88;0.30;;;;;;;7.14;100.00;93753.91;5044923;28;20135;-62
2023/11/05 01:48:07;;;;;;;2.17;0.20;;;;;;;7.09;100.00;93753.28;5065779;28;20041;-63
2023/11/05 01:50:34;;;;;;;1.52;0.30;;;;;;;7.08;100.00;93747.09;5062704;28;20107;-62
2023/11/05 01:53:02;;;;;;;0.40;0.20;;;;;;;7.12;100.00;93745.34;5039416;28;20471;-64
2023/11/05 01:55:29;;;;;;;1.92;0.40;;;;;;;7.11;100.00;93726.84;5064027;28;20116;-63
2023/11/05 01:57:56;;;;;;;0.65;0.20;;;;;;;7.12;100.00;93731.91;5044836;28;20052;-62
2023/11/05 02:00:22;;;;;;;1.00;0.20;;;;;;;7.14;100.00;93737.75;5065295;28;20032;-63
2023/11/05 02:02:50;;;;;;;1.65;0.32;;;;;;;7.14;100.00;93735.06;5045293;28;20106;-63
2023/11/05 02:05:17;;;;;;;1.45;0.85;;;;;;;7.24;100.00;93727.75;5040936;28;20033;-62
2023/11/05 02:07:43;;;;;;;0.40;0.20;;;;;;;7.25;100.00;93729.34;5061543;28;20060;-63
2023/11/05 02:10:10;;;;;;;0.30;0.20;;;;;;;7.18;100.00;93721.75;5063995;28;20111;-63
2023/11/05 02:12:37;;;;;;;0.57;0.20;;;;;;;7.20;100.00;93716.88;5042441;28;20529;-63
2023/11/05 02:15:05;;;;;;;0.85;0.30;;;;;;;7.15;100.00;93707.06;5060344;28;20047;-63
2023/11/05 02:17:32;;;;;;;1.20;0.30;;;;;;;7.15;100.00;93704.38;5043804;28;20738;-62
2023/11/05 02:19:59;;;;;;;0.32;0.20;;;;;;;7.10;100.00;93696.47;5064272;28;20037;-62
2023/11/05 02:22:30;;;;;;;0.50;0.22;;;;;;;7.13;100.00;93695.03;5058462;28;20040;-63
2023/11/05 02:24:57;;;;;;;0.40;0.22;;;;;;;7.09;100.00;93684.13;5062022;28;20093;-63
2023/11/05 02:27:25;;;;;;;0.40;0.15;;;;;;;7.10;100.00;93680.31;5062807;28;20466;-63
2023/11/05 02:29:52;;;;;;;1.65;0.30;;;;;;;7.14;100.00;93683.16;5063439;28;20048;-63
2023/11/05 02:32:18;;;;;;;1.98;0.32;;;;;;;7.16;100.00;93665.56;5045164;28;20064;-63
2023/11/05 02:34:47;;;;;;;2.95;0.30;;;;;;;7.14;100.00;93667.81;5043116;28;20052;-63
2023/11/05 02:37:14;;;;;;;1.55;0.30;;;;;;;7.18;100.00;93662.56;5063493;28;20048;-63
2023/11/05 02:39:41;;;;;;;1.17;0.30;;;;;;;7.17;100.00;93658.31;5043043;28;20094;-62
2023/11/05 02:42:08;;;;;;;0.88;0.28;;;;;;;7.18;100.00;93662.56;5063395;28;20033;-64
2023/11/05 02:44:34;;;;;;;1.50;0.30;;;;;;;7.28;100.00;93664.13;5062040;28;20121;-63
2023/11/05 02:47:02;;;;;;;0.95;0.28;;;;;;;7.21;100.00;93661.94;5043215;28;20062;-63
2023/11/05 02:49:28;;;;;;;4.38;0.30;;;;;;;7.17;100.00;93650.25;5063071;28;20045;-62
2023/11/05 02:51:55;;;;;;;0.63;0.15;;;;;;;7.14;100.00;93642.81;5042600;28;20079;-62
2023/11/05 02:54:22;;;;;;;1.33;0.50;;;;;;;7.14;100.00;93648.97;5062663;28;20040;-63
2023/11/05 02:56:48;;;;;;;3.08;0.50;;;;;;;7.09;100.00;93659.94;5062531;28;20067;-63
2023/11/05 02:59:18;;;;;;;2.08;0.50;;;;;;;7.12;100.00;93648.50;5061824;28;20086;-63
2023/11/05 03:01:45;;;;;;;1.65;0.20;;;;;;;7.21;100.00;93642.31;5041750;28;20029;-62
2023/11/05 03:04:12;;;;;;;1.08;0.30;;;;;;;7.21;100.00;93636.91;5061418;28;20032;-63
2023/11/05 03:06:39;;;;;;;0.28;0.20;;;;;;;7.21;100.00;93629.66;5062766;28;20037;-63
2023/11/05 03:09:06;;;;;;;2.58;0.45;;;;;;;7.23;100.00;93623.94;5062845;28;20045;-63
2023/11/05 03:11:32;;;;;;;0.95;0.28;;;;;;;7.27;100.00;93620.28;5061861;28;20041;-63
2023/11/05 03:13:59;;;;;;;0.50;0.20;;;;;;;7.28;100.00;93602.22;5062907;28;20686;-62
2023/11/05 03:16:25;;;;;;;1.45;0.30;;;;;;;7.22;100.00;93590.84;5058425;28;20036;-63
2023/11/05 03:18:52;;;;;;;1.65;0.30;;;;;;;7.21;100.00;93599.25;5061813;28;20075;-63
2023/11/05 03:21:18;;;;;;;1.85;0.30;;;;;;;7.27;100.00;93606.03;5062852;28;20036;-63
2023/11/05 03:23:45;;;;;;;0.40;0.20;;;;;;;7.23;100.00;93594.34;5063943;28;20037;-62
2023/11/05 03:26:12;;;;;;;1.52;0.30;;;;;;;7.26;100.00;93586.41;5058757;28;20072;-63
2023/11/05 03:28:38;;;;;;;1.50;0.35;;;;;;;7.32;100.00;93594.28;5061613;28;20047;-63
2023/11/05 03:31:06;;;;;;;0.80;0.20;;;;;;;7.25;100.00;93594.81;5060318;28;20146;-62
2023/11/05 03:33:33;;;;;;;0.68;0.30;;;;;;;7.29;100.00;93593.84;5060705;28;20037;-63
2023/11/05 03:36:00;;;;;;;1.23;0.28;;;;;;;7.26;100.00;93582.94;5061517;28;20255;-63
2023/11/05 03:38:27;;;;;;;1.50;0.40;;;;;;;7.21;100.00;93588.50;5045059;28;20048;-63
2023/11/05 03:40:54;;;;;;;1.58;0.50;;;;;;;7.19;100.00;93588.03;5061553;28;20094;-63
2023/11/05 03:43:20;;;;;;;2.45;0.50;;;;;;;7.13;100.00;93592.81;5063016;28;20033;-63
2023/11/05 03:45:47;;;;;;;2.85;0.40;;;;;;;7.13;100.00;93584.75;5060044;28;20106;-62
2023/11/05 03:48:13;;;;;;;2.50;0.52;;;;;;;7.13;100.00;93587.44;5061267;28;20631;-62
2023/11/05 03:50:40;;;;;;;1.67;0.30;;;;;;;7.11;100.00;93589.66;5040378;28;20061;-63
2023/11/05 03:53:06;;;;;;;2.55;0.50;;;;;;;7.13;100.00;93593.59;5062078;28;20060;-62
2023/11/05 03:55:33;;;;;;;2.75;0.60;;;;;;;7.21;100.00;93589.28;5063008;28;20037;-63
2023/11/05 03:58:00;;;;;;;1.02;0.30;;;;;;;7.19;100.00;93602.25;5066052;28;20093;-62
2023/11/05 04:00:26;;;;;;;1.27;0.47;;;;;;;7.12;100.00;93602.00;5066348;28;20036;-63
2023/11/05 04:02:53;;;;;;;5.07;0.45;;;;;;;7.05;100.00;93599.81;5064996;28;20064;-63
2023/11/05 04:05:20;;;;;;;1.27;0.30;;;;;;;7.10;100.00;93591.56;5046301;28;20040;-63
2023/11/05 04:07:46;;;;;;;4.10;0.60;;;;;;;7.10;100.00;93599.63;5062419;28;20040;-63
2023/11/05 04:10:14;;;;;;;1.33;0.30;;;;;;;7.02;100.00;93606.63;5066425;28;20043;-63
2023/11/05 04:12:40;;;;;;;1.55;0.30;;;;;;;7.00;100.00;93603.47;5064061;28;20063;-63
2023/11/05 04:15:08;;;;;;;2.83;0.35;;;;;;;6.97;100.00;93608.69;5065826;28;20037;-64
2023/11/05 04:17:34;;;;;;;1.90;0.50;;;;;;;6.90;100.00;93598.44;5066621;28;20133;-63
2023/11/05 04:20:04;;;;;;;2.65;0.50;;;;;;;6.96;100.00;93607.91;5060496;28;20051;-63
2023/11/05 04:22:31;;;;;;;2.50;0.28;;;;;;;6.97;100.00;93600.63;5065053;28;20032;-63
2023/11/05 04:24:58;;;;;;;1.42;0.43;;;;;;;6.92;100.00;93601.59;5065224;28;20048;-63
2023/11/05 04:27:24;;;;;;;2.25;0.45;;;;;;;6.97;100.00;93600.63;5047352;28;20049;-63
2023/11/05 04:29:51;;;;;;;2.50;0.60;;;;;;;6.90;100.00;93593.84;5064301;28;20072;-63
2023/11/05 04:32:18;;;;;;;1.42;0.43;;;;;;;6.88;100.00;93598.75;5065096;28;20415;-63
2023/11/05 04:34:45;;;;;;;3.88;0.45;;;;;;;6.79;100.00;93586.44;5064567;28;20121;-63
2023/11/05 04:37:12;;;;;;;1.42;0.40;;;;;;;6.74;100.00;93595.47;5065492;28;20040;-63
2023/11/05 04:39:41;;;;;;;2.80;0.95;;;;;;;6.69;100.00;93595.63;5046886;28;20047;-63
2023/11/05 04:42:09;;;;;;;1.92;0.50;;;;;;;6.57;100.00;93599.00;5065019;28;20094;-63
2023/11/05 04:44:37;;;;;;;0.60;0.30;;;;;;;6.51;100.00;93593.00;5065277;28;20039;-63
2023/11/05 04:47:04;;;;;;;3.72;0.47;;;;;;;6.47;100.00;93594.75;5064328;28;20055;-64
2023/11/05 04:49:31;;;;;;;2.72;0.65;;;;;;;6.40;100.00;93594.44;5064923;28;20048;-63
2023/11/05 04:51:58;;;;;;;1.67;0.38;;;;;;;6.08;100.00;93589.28;5064475;28;20759;-63
2023/11/05 04:54:25;;;;;;;1.38;0.50;;;;;;;6.03;100.00;93581.31;5059659;28;20048;-63
2023/11/05 04:56:51;;;;;;;1.35;0.40;;;;;;;6.16;100.00;93587.66;5046836;28;20051;-63
2023/11/05 04:59:18;;;;;;;2.25;0.50;;;;;;;6.21;100.00;93585.63;5064688;28;20044;-64
2023/11/05 05:01:45;;;;;;;1.90;0.40;;;;;;;6.07;100.00;93593.84;5063991;28;20510;-63
2023/11/05 05:04:11;;;;;;;2.22;0.40;;;;;;;6.06;100.00;93597.63;5062159;28;20051;-63
2023/11/05 05:06:38;;;;;;;3.40;0.30;;;;;;;6.06;100.00;93599.53;5062632;28;20132;-63
2023/11/05 05:09:06;;;;;;;2.10;0.40;;;;;;;6.09;100.00;93609.63;5042036;28;20058;-63
2023/11/05 05:11:33;;;;;;;2.25;0.40;;;;;;;5.98;100.00;93595.72;5064430;28;20752;-63
2023/11/05 05:14:00;;;;;;;2.05;0.40;;;;;;;5.93;100.00;93604.69;5061269;28;20038;-63
2023/11/05 05:16:28;;;;;;;2.75;0.70;;;;;;;5.94;100.00;93600.91;5061970;28;20040;-63
2023/11/05 05:18:55;;;;;;;1.67;0.40;;;;;;;5.95;100.00;93597.13;5066278;28;20036;-63
2023/11/05 05:21:22;;;;;;;2.95;0.70;;;;;;;6.15;100.00;93603.00;5063495;28;20496;-63
2023/11/05 05:23:48;;;;;;;1.25;0.38;;;;;;;6.45;100.00;93594.28;5063792;28;20052;-63
2023/11/05 05:26:15;;;;;;;2.90;0.52;;;;;;;7.04;100.00;93600.91;5064808;28;20039;-63
2023/11/05 05:28:46;;;;;;;0.80;0.20;;;;;;;7.61;100.00;93606.97;5064560;28;20036;-62
2023/11/05 05:31:12;;;;;;;2.65;0.50;;;;;;;8.20;100.00;93599.91;5064493;28;20043;-62
2023/11/05 05:33:40;;;;;;;1.25;0.30;;;;;;;8.39;100.00;93606.72;5063220;28;20040;-63
2023/11/05 05:36:07;;;;;;;2.88;0.57;;;;;;;8.50;100.00;93609.78;5063829;28;20055;-63
2023/11/05 05:38:33;;;;;;;2.10;0.40;;;;;;;8.59;100.00;93609.75;5064523;28;20095;-63
2023/11/05 05:41:00;;;;;;;2.50;0.35;;;;;;;8.70;100.00;93600.09;5064386;28;20032;-62
2023/11/05 05:43:27;;;;;;;1.58;0.22;;;;;;;8.66;100.00;93606.50;5065070;28;20104;-63
2023/11/05 05:45:53;;;;;;;1.88;0.55;;;;;;;8.74;100.00;93613.72;5063225;28;20058;-63
2023/11/05 05:48:20;;;;;;;2.17;0.47;;;;;;;8.85;100.00;93616.78;5063908;28;20124;-63
2023/11/05 05:50:46;;;;;;;1.52;0.30;;;;;;;8.95;100.00;93618.25;5063873;28;20036;-62
2023/11/05 05:53:13;;;;;;;2.00;0.30;;;;;;;8.86;100.00;93621.06;5065371;28;20041;-63
2023/11/05 05:55:40;;;;;;;0.52;0.20;;;;;;;8.93;100.00;93620.50;5062995;28;20040;-63
2023/11/05 05:58:07;;;;;;;3.45;0.28;;;;;;;8.89;100.00;93615.00;5063406;28;20044;-64
2023/11/05 06:00:34;;;;;;;0.75;0.30;;;;;;;8.92;100.00;93605.47;5063529;28;20043;-63
2023/11/05 06:03:00;;;;;;;1.00;0.30;;;;;;;8.95;100.00;93610.97;5063270;28;20037;-63
2023/11/05 06:05:27;;;;;;;2.72;0.50;;;;;;;9.00;100.00;93618.06;5063131;28;20687;-63
2023/11/05 06:07:54;;;;;;;1.00;0.30;;;;;;;8.97;100.00;93618.72;5058766;28;20042;-63
2023/11/05 06:10:20;;;;;;;1.98;0.52;;;;;;;8.92;100.00;93610.84;5064256;28;20052;-63
2023/11/05 06:12:47;;;;;;;0.28;0.20;;;;;;;9.00;100.00;93618.06;5044540;28;20036;-62
2023/11/05 06:15:14;;;;;;;0.68;0.20;;;;;;;9.08;100.00;93611.78;5063546;28;20105;-63
2023/11/05 06:17:41;;;;;;;1.85;0.30;;;;;;;9.08;100.00;93614.47;5059584;28;20036;-62
2023/11/05 06:20:08;;;;;;;2.38;0.63;;;;;;;9.02;100.00;93623.91;5061248;28;20531;-63
2023/11/05 06:22:35;;;;;;;2.33;0.30;;;;;;;9.02;100.00;93623.09;5061208;28;20657;-62
2023/11/05 06:25:08;;;;;;;2.40;0.30;;;;;;;8.91;100.00;93620.84;5060724;28;20048;-63
2023/11/05 06:27:35;;;;;;;0.65;0.22;;;;;;;8.97;100.00;93619.53;5060780;28;20059;-64
2023/11/05 06:30:03;;;;;;;0.98;0.17;;;;;;;8.95;100.00;93616.34;5061395;28;20528;-63
2023/11/05 06:32:30;;;;;;;1.20;0.32;;;;;;;8.97;100.00;93613.31;5061551;28;20098;-62
2023/11/05 06:34:57;;;;;;;1.08;0.30;;;;;;;8.94;100.00;93614.78;5060464;28;20040;-63
2023/11/05 06:37:26;;;;;;;3.50;0.43;;;;;;;9.01;100.00;93618.84;5028412;28;20652;-62
2023/11/05 06:39:53;;;;;;;0.25;0.20;;;;;;;9.01;100.00;93624.22;5060867;28;20044;-63
2023/11/05 06:42:20;;;;;;;0.70;0.10;;;;;;;9.05;100.00;93628.63;5059441;28;20605;-63
2023/11/05 06:44:47;;;;;;;0.52;0.15;;;;;;;9.06;100.00;93630.19;5064332;28;20036;-62
2023/11/05 06:47:14;;;;;;;1.00;0.30;;;;;;;9.13;100.00;93643.16;5059673;28;20040;-64
2023/11/05 06:49:40;;;;;;;0.20;0.15;;;;;;;9.09;100.00;93650.34;5062488;28;20438;-63
2023/11/05 06:52:07;;;;;;;1.20;0.38;;;;;;;9.12;100.00;93657.78;5045682;28;20459;-63
2023/11/05 06:54:34;;;;;;;1.50;0.30;;;;;;;9.10;100.00;93665.41;5062471;28;20040;-63
2023/11/05 06:57:03;;;;;;;3.85;1.58;;;;;;;9.07;100.00;93674.94;5063203;28;20052;-63
2023/11/05 06:59:29;;;;;;;0.10;0.10;;;;;;;9.04;100.00;93681.03;5062092;28;20144;-63
2023/11/05 07:01:56;;;;;;;1.27;0.20;;;;;;;9.04;100.00;93686.44;5062021;28;20056;-63
2023/11/05 07:04:23;;;;;;;1.50;0.20;;;;;;;9.09;100.00;93693.50;5042357;28;20044;-63
2023/11/05 07:06:50;;;;;;;1.08;0.20;;;;;;;9.05;100.00;93700.69;5059957;28;20109;-63
2023/11/05 07:09:16;;;;;;;0.80;0.30;;;;;;;9.07;100.00;93699.22;5060944;28;20059;-63
2023/11/05 07:11:43;;;;;;;0.20;0.10;;;;;;;9.03;100.00;93694.84;5055341;28;20047;-63
2023/11/05 07:14:10;;;;;;;2.13;0.20;;;;;;;8.95;100.00;93707.28;5060340;28;20041;-62
2023/11/05 07:16:37;;;;;;;0.10;0.10;;;;;;;8.97;100.00;93705.88;5042165;28;20492;-63
2023/11/05 07:19:04;;;;;;;0.30;0.20;;;;;;;9.05;100.00;93692.59;5060930;28;20668;-63
2023/11/05 07:21:31;;;;;;;1.90;0.20;;;;;;;8.93;100.00;93699.56;5060142;28;20045;-63
2023/11/05 07:23:58;;;;;;;1.38;0.20;;;;;;;8.84;100.00;93691.53;5059783;28;20033;-63
2023/11/05 07:26:25;;;;;;;0.30;0.20;;;;;;;8.82;100.00;93699.16;5060134;28;20040;-62
2023/11/05 07:28:51;;;;;;;0.73;0.45;;;;;;;8.77;100.00;93712.06;5059555;28;20094;-63
2023/11/05 07:31:21;;;;;;;0.30;0.20;;;;;;;8.83;100.00;93716.13;5063509;28;20059;-63
2023/11/05 07:33:48;;;;;;;0.88;0.32;;;;;;;8.96;100.00;93725.84;5061786;28;20110;-62
2023/11/05 07:36:15;;;;;;;2.08;0.40;;;;;;;8.92;100.00;93708.75;5064485;28;20042;-63
2023/11/05 07:38:42;;;;;;;1.63;0.35;;;;;;;8.89;100.00;93722.13;5063601;28;20591;-63
2023/11/05 07:41:08;;;;;;;1.58;0.30;;;;;;;8.95;100.00;93726.19;5046523;28;20607;-63
2023/11/05 07:43:35;;;;;;;0.32;0.22;;;;;;;9.08;100.00;93713.53;5064926;28;20040;-63
2023/11/05 07:46:01;;;;;;;0.60;0.13;;;;;;;9.09;100.00;93715.09;5060283;28;20068;-63
2023/11/05 07:48:28;;;;;;;0.70;0.28;;;;;;;9.21;100.00;93723.22;5063592;28;20040;-63
2023/11/05 07:50:55;;;;;;;0.75;0.25;;;;;;;9.30;100.00;93733.97;5048120;28;20534;-62
2023/11/05 07:53:21;;;;;;;0.63;0.20;;;;;;;9.41;100.00;93720.03;5063648;28;20041;-63
2023/11/05 07:55:48;;;;;;;1.45;0.40;;;;;;;9.42;100.00;93730.50;5063598;28;20044;-63
2023/11/05 07:58:15;;;;;;;0.45;0.20;;;;;;;9.54;100.00;93734.34;5060440;28;20040;-62
2023/11/05 08:00:42;;;;;;;0.57;0.30;;;;;;;9.68;100.00;93758.31;5063036;28;20511;-63
2023/11/05 08:03:08;;;;;;;1.15;0.30;;;;;;;9.80;100.00;93752.16;5062778;28;20040;-62
2023/11/05 08:05:35;;;;;;;0.70;0.30;;;;;;;9.73;100.00;93755.41;5063668;28;20052;-63
2023/11/05 08:08:02;;;;;;;0.68;0.20;;;;;;;9.84;100.00;93780.09;5062200;28;20098;-63
2023/11/05 08:10:29;;;;;;;1.02;0.30;;;;;;;9.90;100.00;93778.72;5062181;28;20037;-63
2023/11/05 08:12:55;;;;;;;0.70;0.25;;;;;;;9.78;100.00;93784.91;5059152;28;20496;-62
2023/11/05 08:15:22;;;;;;;1.02;0.20;;;;;;;9.82;100.00;93809.34;5060706;28;20047;-63
2023/11/05 08:17:48;;;;;;;0.17;0.13;;;;;;;9.84;100.00;93815.97;5063782;28;20044;-64
2023/11/05 08:20:16;;;;;;;1.40;0.40;;;;;;;9.80;100.00;93830.50;5061613;28;20052;-64
2023/11/05 08:22:43;;;;;;;0.57;0.20;;;;;;;9.75;100.00;93831.50;5058731;28;20037;-64
2023/11/05 08:25:13;;;;;;;1.45;0.20;;;;;;;9.66;100.00;93836.22;5063202;28;20055;-63
2023/11/05 08:27:41;;;;;;;2.20;0.50;;;;;;;9.60;100.00;93841.81;5063531;28;20072;-63
2023/11/05 08:30:13;;;;;;;0.20;0.20;;;;;;;9.55;100.00;93833.13;5063537;28;20052;-63
2023/11/05 08:32:40;;;;;;;;;;;;;;;9.69;100.00;93832.84;5060747;28;20099;-63
2023/11/05 08:35:08;;;;;;;0.88;0.20;;;;;;;9.72;100.00;93837.56;5058988;28;20284;-60
2023/11/05 08:37:36;;;;;;;0.20;0.10;;;;;;;9.78;100.00;93841.66;5061943;28;20131;-60
2023/11/05 08:40:07;;;;;;;0.65;0.30;;;;;;;9.72;100.00;93843.75;5059551;28;20045;-60
2023/11/05 08:42:35;;;;;;;2.17;0.30;;;;;;;9.73;100.00;93852.66;5063103;28;20116;-62
2023/11/05 08:45:02;;;;;;;1.02;0.20;;;;;;;9.84;100.00;93843.00;5061286;28;20098;-62
2023/11/05 08:47:29;;;;;;;0.47;0.30;;;;;;;9.91;100.00;93855.97;5063343;28;20059;-62
2023/11/05 08:49:55;;;;;;;0.70;0.30;;;;;;;9.98;100.00;93871.63;5063368;28;20040;-62
2023/11/05 08:52:22;;;;;;;0.77;0.35;;;;;;;10.12;100.00;93868.63;5066403;28;20105;-62
2023/11/05 08:54:48;;;;;;;2.90;0.75;;;;;;;10.01;100.00;93866.34;5062809;28;20117;-63
2023/11/05 08:57:15;;;;;;;0.95;0.20;;;;;;;10.07;100.00;93877.75;5062712;28;20040;-63
2023/11/05 08:59:41;;;;;;;1.55;0.35;;;;;;;10.20;100.00;93875.03;5062697;28;20036;-64
2023/11/05 09:02:09;;;;;;;1.02;0.30;;;;;;;10.17;100.00;93887.31;5063403;28;20539;-61
2023/11/05 09:04:35;;;;;;;0.40;0.20;;;;;;;10.26;100.00;93911.56;5061972;28;20036;-61
2023/11/05 09:07:02;;;;;;;2.25;0.30;;;;;;;10.37;100.00;93910.03;5059377;28;20105;-60
2023/11/05 09:09:30;;;;;;;0.28;0.10;;;;;;;10.54;100.00;93911.75;5063491;28;20047;-61
2023/11/05 09:11:57;;;;;;;2.35;0.20;;;;;;;10.39;100.00;93921.28;5062794;28;21438;-61
2023/11/05 09:14:23;;;;;;;0.82;0.20;;;;;;;10.46;100.00;93936.97;5063231;28;20040;-61
2023/11/05 09:16:50;;;;;;;0.70;0.30;;;;;;;10.48;100.00;93944.75;5060898;28;20050;-60
2023/11/05 09:19:17;;;;;;;2.08;0.40;;;;;;;10.31;100.00;93945.72;5059873;28;20049;-61
2023/11/05 09:21:45;;;;;;;0.60;0.20;;;;;;;10.33;100.00;93946.97;5059887;28;20094;-61
2023/11/05 09:24:12;;;;;;;0.25;0.20;;;;;;;10.18;100.00;93959.22;5060242;28;20041;-61
2023/11/05 09:26:38;;;;;;;1.00;0.28;;;;;;;10.17;100.00;93959.53;5061893;28;20681;-61
2023/11/05 09:29:05;;;;;;;0.20;0.10;;;;;;;10.22;100.00;93972.84;5062333;28;20044;-61
2023/11/05 09:31:31;;;;;;;0.63;0.25;;;;;;;10.31;100.00;93973.53;5062342;28;20051;-61
2023/11/05 09:33:58;;;;;;;1.05;0.20;;;;;;;10.41;100.00;93978.53;5059702;28;20060;-61
2023/11/05 09:36:25;;;;;;;0.65;0.20;;;;;;;10.51;100.00;93985.44;5061325;28;20036;-61
2023/11/05 09:38:53;;;;;;;1.35;0.20;;;;;;;10.49;100.00;93997.72;5061818;28;20523;-61
2023/11/05 09:41:24;;;;;;;1.25;0.32;;;;;;;10.51;100.00;93996.25;5062540;28;20115;-62
2023/11/05 09:43:52;;;;;;;1.88;0.30;;;;;;;10.49;100.00;94006.63;5059902;28;20044;-63
2023/11/05 09:46:19;;;;;;;0.80;0.30;;;;;;;10.45;100.00;94013.03;5058686;28;20040;-62
2023/11/05 09:48:46;;;;;;;1.75;0.60;;;;;;;10.43;100.00;94010.63;5062214;28;20564;-61
2023/11/05 09:51:13;;;;;;;2.42;0.38;;;;;;;10.49;100.00;94036.38;5062289;28;20105;-62
2023/11/05 09:53:39;;;;;;;0.50;0.20;;;;;;;10.48;100.00;94042.13;5058990;28;20044;-62
2023/11/05 09:56:06;;;;;;;2.72;0.40;;;;;;;10.37;100.00;94047.13;5059380;28;20048;-63
2023/11/05 09:58:33;;;;;;;0.85;0.30;;;;;;;10.19;100.00;94047.28;5058958;28;20060;-62
2023/11/05 10:01:04;;;;;;;1.48;0.25;;;;;;;10.14;100.00;94055.63;5061614;28;20075;-62
2023/11/05 10:03:31;;;;;;;0.75;0.30;;;;;;;10.19;100.00;94054.59;5062140;28;20048;-62
2023/11/05 10:05:58;;;;;;;0.85;0.20;;;;;;;10.10;100.00;94066.28;5061094;28;21351;-62
2023/11/05 10:08:24;;;;;;;1.17;0.30;;;;;;;10.15;100.00;94073.41;5060263;28;20877;-62
2023/11/05 10:10:57;;;;;;;0.50;0.20;;;;;;;10.08;100.00;94082.06;5063716;28;20761;-63
2023/11/05 10:13:30;;;;;;;0.82;0.30;;;;;;;10.12;100.00;94082.16;5060633;28;20469;-62
2023/11/05 10:15:59;;;;;;;0.95;0.25;;;;;;;10.22;100.00;94084.50;5067017;28;20064;-63
2023/11/05 10:18:26;;;;;;;0.88;0.30;;;;;;;10.17;100.00;94100.91;5062154;28;20036;-63
2023/11/05 10:20:55;;;;;;;0.40;0.32;;;;;;;10.15;100.00;94105.84;5061474;28;20040;-63
2023/11/05 10:23:23;;;;;;;1.73;0.65;;;;;;;9.91;100.00;94114.63;5064759;28;20063;-62
2023/11/05 10:25:51;;;;;;;3.22;0.52;;;;;;;9.50;100.00;94123.88;5059121;28;20124;-63
2023/11/05 10:28:23;;;;;;;1.98;0.40;;;;;;;9.23;100.00;94117.00;5060268;28;20036;-62
2023/11/05 10:30:51;;;;;;;;;;;;;;;9.22;100.00;94124.31;5059054;28;20697;-63
2023/11/05 10:33:21;;;;;;;1.15;0.40;;;;;;;9.03;100.00;94130.09;5058892;28;19966;-62
2023/11/05 10:35:47;;;;;;;1.38;0.40;;;;;;;9.05;100.00;94108.97;5056927;28;20741;-63
2023/11/05 10:38:18;;;;;;;0.73;0.40;;;;;;;9.15;100.00;94107.84;5061238;28;20534;-63
2023/11/05 10:40:49;;;;;;;0.90;0.20;;;;;;;9.26;100.00;94116.38;5058832;28;20699;-62
2023/11/05 10:43:16;;;;;;;1.40;0.50;;;;;;;9.40;100.00;94131.56;5061664;28;20131;-62
2023/11/05 10:45:44;;;;;;;1.77;0.98;;;;;;;9.46;100.00;94136.47;5063069;28;20032;-62
2023/11/05 10:48:11;;;;;;;1.52;0.43;;;;;;;9.54;100.00;94145.63;5061345;28;20058;-63
2023/11/05 10:50:38;;;;;;;1.05;0.38;;;;;;;9.53;100.00;94154.03;5061245;28;20041;-63
2023/11/05 10:53:06;;;;;;;0.80;0.80;;;;;;;9.59;100.00;94155.47;5059485;28;20503;-62
2023/11/05 10:55:35;;;;;;;1.48;0.40;;;;;;;9.35;100.00;94168.44;5058690;28;20094;-63
2023/11/05 10:58:06;;;;;;;1.80;0.52;;;;;;;9.26;100.00;94167.66;5060267;28;20227;-62
2023/11/05 11:01:04;;;;;;;0.88;0.38;;;;;;;9.20;100.00;94180.53;5060912;28;20515;-63
2023/11/05 11:03:30;;;;;;;0.63;0.35;;;;;;;9.13;100.00;94185.63;5042719;28;20136;-62
2023/11/05 11:05:59;;;;;;;0.77;0.30;;;;;;;9.22;100.00;94191.03;5059579;28;20422;-62
2023/11/05 11:08:29;;;;;;;0.80;0.32;;;;;;;9.29;100.00;94201.31;5060893;28;20089;-62
2023/11/05 11:11:15;;;;;;;0.65;0.30;;;;;;;9.22;100.00;94208.00;5055609;28;20174;-61
2023/11/05 11:13:52;;;;;;;0.30;0.20;;;;;;;9.34;100.00;94210.03;5039111;28;20741;-62
2023/11/05 11:16:27;;;;;;;1.85;0.30;;;;;;;9.50;100.00;94217.59;5061305;28;20067;-61
2023/11/05 11:18:54;;;;;;;1.10;0.40;;;;;;;9.47;100.00;94218.28;5058591;28;20037;-62
2023/11/05 11:21:22;;;;;;;1.85;0.40;;;;;;;9.29;100.00;94223.69;5061148;28;20094;-63
2023/11/05 11:23:52;;;;;;;2.45;0.60;;;;;;;9.34;100.00;94228.94;5061803;28;20131;-62
2023/11/05 11:26:25;;;;;;;0.93;0.43;;;;;;;9.20;100.00;94221.03;5055979;28;20036;-61
2023/11/05 11:28:57;;;;;;;1.23;0.40;;;;;;;9.10;100.00;94232.16;5056964;28;20056;-62
2023/11/05 11:31:26;;;;;;;1.00;0.38;;;;;;;9.18;100.00;94239.44;5060286;28;20502;-61